createdAt,value
2022-12-14T00:00:34.993Z,73.51
2022-12-14T00:03:03.441Z,73.94
2022-12-14T00:05:33.251Z,73.73
2022-12-14T00:08:02.063Z,73.79
2022-12-14T00:10:30.804Z,73.04
2022-12-14T00:13:10.082Z,74.03
2022-12-14T00:15:38.860Z,73.90
2022-12-14T00:18:07.582Z,74.16
2022-12-14T00:20:37.467Z,73.76
2022-12-14T00:23:05.856Z,73.49
2022-12-14T00:25:34.527Z,73.58
2022-12-14T00:28:02.895Z,73.77
2022-12-14T00:30:31.236Z,74.15
2022-12-14T00:32:59.559Z,73.89
2022-12-14T00:35:27.939Z,73.88
2022-12-14T00:37:57.609Z,73.40
2022-12-14T00:40:26.005Z,73.90
2022-12-14T00:42:54.836Z,73.41
2022-12-14T00:45:23.150Z,73.28
2022-12-14T00:47:51.475Z,73.70
2022-12-14T00:50:20.188Z,74.30
2022-12-14T00:52:48.489Z,73.64
2022-12-14T00:55:18.382Z,73.87
2022-12-14T00:57:46.713Z,73.88
2022-12-14T01:00:15.847Z,73.79
2022-12-14T01:02:44.390Z,73.53
2022-12-14T01:05:12.821Z,74.04
2022-12-14T01:07:41.360Z,74.77
2022-12-14T01:10:10.476Z,74.96
2022-12-14T01:12:40.598Z,74.46
2022-12-14T01:15:09.794Z,74.32
2022-12-14T01:17:38.175Z,73.90
2022-12-14T01:20:07.798Z,73.99
2022-12-14T01:22:36.150Z,74.08
2022-12-14T01:25:05.696Z,74.00
2022-12-14T01:27:34.794Z,74.21
2022-12-14T01:30:04.928Z,73.96
2022-12-14T01:32:33.340Z,74.14
2022-12-14T01:35:01.720Z,74.51
2022-12-14T01:37:30.251Z,74.35
2022-12-14T01:39:58.555Z,74.49
2022-12-14T01:42:26.932Z,74.01
2022-12-14T01:44:58.330Z,74.03
2022-12-14T01:47:39.203Z,74.26
2022-12-14T01:50:13.887Z,73.90
2022-12-14T01:52:45.108Z,74.18
2022-12-14T01:55:18.379Z,73.86
2022-12-14T01:57:50.425Z,74.28
2022-12-14T02:00:18.838Z,74.38
2022-12-14T02:02:52.968Z,74.30
2022-12-14T02:05:23.604Z,74.71
2022-12-14T02:07:55.800Z,74.45
2022-12-14T02:10:26.211Z,74.64
2022-12-14T02:13:00.448Z,74.50
2022-12-14T02:15:29.343Z,74.40
2022-12-14T02:17:59.440Z,74.21
2022-12-14T02:20:35.191Z,74.65
2022-12-14T02:23:43.028Z,74.68
2022-12-14T02:26:53.977Z,74.71
2022-12-14T02:29:56.263Z,74.52
2022-12-14T02:32:50.467Z,74.54
2022-12-14T02:35:28.064Z,75.01
2022-12-14T02:38:08.905Z,74.41
2022-12-14T02:40:42.237Z,74.39
2022-12-14T02:43:23.777Z,74.61
2022-12-14T02:46:01.071Z,75.05
2022-12-14T02:48:37.447Z,74.52
2022-12-14T02:51:13.824Z,75.24
2022-12-14T02:53:48.865Z,74.43
2022-12-14T02:56:23.553Z,74.83
2022-12-14T02:58:53.790Z,75.46
2022-12-14T03:01:27.185Z,75.43
2022-12-14T03:03:55.883Z,74.97
2022-12-14T03:06:27.004Z,75.07
2022-12-14T03:08:59.607Z,75.28
2022-12-14T03:11:32.683Z,75.00
2022-12-14T03:14:07.871Z,75.32
2022-12-14T03:16:43.361Z,75.39
2022-12-14T03:19:17.040Z,75.39
2022-12-14T03:21:48.661Z,75.72
2022-12-14T03:24:22.183Z,75.27
2022-12-14T03:26:55.835Z,75.36
2022-12-14T03:29:29.000Z,75.26
2022-12-14T03:32:02.044Z,75.09
2022-12-14T03:34:37.152Z,75.49
2022-12-14T03:37:11.904Z,75.54
2022-12-14T03:39:43.453Z,75.15
2022-12-14T03:42:19.764Z,74.99
2022-12-14T03:44:58.429Z,74.93
2022-12-14T03:47:47.151Z,75.33
2022-12-14T03:50:19.723Z,75.24
2022-12-14T03:52:56.140Z,74.88
2022-12-14T03:55:30.749Z,75.28
2022-12-14T03:58:15.665Z,74.82
2022-12-14T04:00:50.921Z,75.34
2022-12-14T04:03:30.139Z,75.27
2022-12-14T04:06:04.560Z,74.90
2022-12-14T04:08:39.704Z,75.23
2022-12-14T04:11:41.055Z,75.11
2022-12-14T04:14:32.140Z,75.00
2022-12-14T04:17:21.166Z,75.36
2022-12-14T04:19:55.040Z,75.44
2022-12-14T04:22:27.835Z,75.60
2022-12-14T04:25:17.747Z,75.39
2022-12-14T04:27:50.611Z,75.02
2022-12-14T04:30:18.351Z,75.57
2022-12-14T04:32:51.663Z,75.54
2022-12-14T04:35:27.331Z,75.64
2022-12-14T04:38:00.840Z,75.61
2022-12-14T04:40:33.933Z,75.38
2022-12-14T04:43:07.072Z,75.64
2022-12-14T04:45:41.705Z,75.35
2022-12-14T04:48:19.379Z,75.64
2022-12-14T04:50:54.634Z,75.77
2022-12-14T04:53:27.070Z,75.40
2022-12-14T04:56:05.306Z,75.74
2022-12-14T04:58:37.706Z,75.72
2022-12-14T05:01:21.055Z,75.41
2022-12-14T05:03:54.775Z,75.46
2022-12-14T05:06:31.960Z,75.73
2022-12-14T05:09:14.984Z,75.71
2022-12-14T05:11:54.254Z,75.54
2022-12-14T05:14:34.669Z,75.76
2022-12-14T05:17:08.751Z,75.38
2022-12-14T05:19:38.781Z,75.61
2022-12-14T05:22:09.634Z,75.88
2022-12-14T05:24:38.032Z,75.83
2022-12-14T05:27:06.932Z,76.07
2022-12-14T05:29:35.709Z,75.53
2022-12-14T05:32:04.566Z,75.94
2022-12-14T05:34:33.000Z,76.03
2022-12-14T05:37:01.362Z,75.81
2022-12-14T05:39:31.116Z,75.98
2022-12-14T05:41:59.504Z,76.25
2022-12-14T05:44:27.823Z,76.04
2022-12-14T05:46:56.249Z,76.00
2022-12-14T05:49:25.255Z,76.08
2022-12-14T05:51:53.619Z,76.41
2022-12-14T05:54:21.969Z,76.45
2022-12-14T05:56:51.608Z,76.69
2022-12-14T05:59:20.061Z,76.39
2022-12-14T06:01:51.100Z,76.55
2022-12-14T06:04:20.186Z,76.60
2022-12-14T06:06:48.804Z,76.75
2022-12-14T06:09:17.737Z,76.48
2022-12-14T06:11:47.177Z,76.52
2022-12-14T06:14:17.430Z,76.49
2022-12-14T06:16:47.256Z,76.50
2022-12-14T06:19:16.311Z,76.24
2022-12-14T06:21:45.069Z,76.27
2022-12-14T06:24:14.487Z,76.59
2022-12-14T06:26:43.079Z,76.46
2022-12-14T06:29:17.881Z,76.66
2022-12-14T06:31:49.175Z,76.63
2022-12-14T06:34:22.207Z,76.82
2022-12-14T06:36:53.233Z,76.41
2022-12-14T06:39:21.582Z,76.55
2022-12-14T06:41:51.464Z,76.60
2022-12-14T06:44:21.330Z,76.81
2022-12-14T06:46:49.817Z,76.87
2022-12-14T06:49:18.572Z,76.43
2022-12-14T06:51:47.491Z,76.70
2022-12-14T06:54:16.748Z,76.75
2022-12-14T06:56:46.291Z,76.68
2022-12-14T06:59:15.902Z,76.61
2022-12-14T07:01:50.049Z,76.43
2022-12-14T07:04:21.516Z,76.90
2022-12-14T07:06:50.185Z,76.76
2022-12-14T07:09:19.446Z,76.81
2022-12-14T07:11:50.959Z,76.98
2022-12-14T07:14:19.275Z,76.98
2022-12-14T07:16:49.322Z,76.93
2022-12-14T07:19:18.665Z,76.73
2022-12-14T07:21:47.008Z,76.91
2022-12-14T07:24:15.410Z,76.94
2022-12-14T07:26:43.832Z,76.94
2022-12-14T07:29:14.640Z,77.51
2022-12-14T07:31:42.971Z,77.20
2022-12-14T07:34:14.586Z,77.17
2022-12-14T07:36:43.823Z,77.26
2022-12-14T07:39:14.361Z,77.25
2022-12-14T07:41:42.887Z,77.33
2022-12-14T07:44:11.683Z,77.31
2022-12-14T07:46:41.167Z,77.66
2022-12-14T07:49:09.773Z,77.71
2022-12-14T07:51:42.084Z,77.61
2022-12-14T07:54:12.761Z,77.42
2022-12-14T07:56:43.329Z,77.41
2022-12-14T07:59:14.887Z,77.62
2022-12-14T08:01:44.167Z,77.48
2022-12-14T08:04:14.839Z,77.55
2022-12-14T08:06:44.598Z,77.44
2022-12-14T08:09:13.014Z,77.43
2022-12-14T08:11:41.737Z,77.35
2022-12-14T08:14:17.001Z,77.51
2022-12-14T08:16:46.063Z,77.47
2022-12-14T08:19:14.900Z,77.51
2022-12-14T08:21:46.356Z,77.91
2022-12-14T08:24:16.806Z,77.65
2022-12-14T08:26:49.157Z,77.91
2022-12-14T08:29:18.870Z,77.62
2022-12-14T08:31:47.949Z,77.94
2022-12-14T08:34:22.050Z,77.75
2022-12-14T08:36:51.836Z,78.08
2022-12-14T08:39:20.361Z,78.03
2022-12-14T08:41:48.763Z,77.98
2022-12-14T08:44:18.786Z,78.04
2022-12-14T08:46:47.635Z,78.07
2022-12-14T08:49:16.242Z,77.83
2022-12-14T08:51:44.601Z,78.07
2022-12-14T08:54:14.314Z,78.21
2022-12-14T08:56:42.705Z,78.24
2022-12-14T08:59:24.705Z,78.13
2022-12-14T09:02:00.023Z,78.10
2022-12-14T09:04:28.696Z,78.23
2022-12-14T09:06:57.564Z,78.31
2022-12-14T09:09:27.410Z,78.25
2022-12-14T09:11:55.832Z,78.01
2022-12-14T09:14:24.188Z,78.24
2022-12-14T09:16:52.780Z,78.35
2022-12-14T09:19:21.112Z,78.34
2022-12-14T09:21:49.680Z,78.31
2022-12-14T09:24:20.096Z,78.42
2022-12-14T09:26:49.895Z,78.32
2022-12-14T09:29:20.503Z,78.54
2022-12-14T09:31:48.902Z,78.57
2022-12-14T09:34:17.356Z,78.47
2022-12-14T09:36:46.015Z,78.79
2022-12-14T09:39:15.113Z,78.59
2022-12-14T09:42:00.995Z,79.03
2022-12-14T09:44:43.934Z,78.97
2022-12-14T09:47:16.767Z,78.91
2022-12-14T09:49:50.388Z,79.04
2022-12-14T09:52:21.915Z,79.17
2022-12-14T09:54:52.399Z,79.28
2022-12-14T09:57:29.249Z,79.30
2022-12-14T09:59:58.111Z,79.46
2022-12-14T10:02:41.617Z,79.03
2022-12-14T10:05:25.471Z,78.94
2022-12-14T10:08:04.689Z,78.88
2022-12-14T10:10:41.771Z,78.88
2022-12-14T10:13:21.999Z,78.97
2022-12-14T10:15:58.738Z,78.75
2022-12-14T10:19:01.094Z,78.99
2022-12-14T10:21:49.821Z,78.67
2022-12-14T10:24:22.939Z,78.54
2022-12-14T10:26:53.138Z,78.68
2022-12-14T10:29:36.662Z,78.66
2022-12-14T10:32:17.164Z,78.82
2022-12-14T10:34:45.838Z,78.93
2022-12-14T10:37:26.024Z,79.06
2022-12-14T10:40:28.884Z,78.89
2022-12-14T10:43:15.708Z,78.81
2022-12-14T10:45:52.926Z,78.82
2022-12-14T10:48:40.855Z,78.86
2022-12-14T10:51:15.377Z,79.06
2022-12-14T10:53:48.868Z,78.92
2022-12-14T10:56:23.235Z,79.28
2022-12-14T10:59:26.763Z,79.36
2022-12-14T11:02:03.629Z,79.35
2022-12-14T11:04:35.176Z,79.14
2022-12-14T11:07:06.715Z,79.05
2022-12-14T11:09:35.585Z,79.38
2022-12-14T11:12:07.638Z,79.51
2022-12-14T11:14:37.818Z,79.69
2022-12-14T11:17:31.627Z,79.58
2022-12-14T11:20:15.833Z,79.70
2022-12-14T11:22:46.801Z,79.58
2022-12-14T11:25:29.558Z,79.91
2022-12-14T11:27:59.267Z,79.57
2022-12-14T11:30:30.041Z,79.64
2022-12-14T11:32:59.910Z,79.65
2022-12-14T11:35:28.342Z,80.03
2022-12-14T11:38:00.662Z,79.99
2022-12-14T11:40:29.173Z,79.87
2022-12-14T11:43:03.744Z,79.95
2022-12-14T11:45:34.652Z,79.91
2022-12-14T11:48:20.569Z,80.21
2022-12-14T11:50:50.818Z,79.85
2022-12-14T11:53:21.492Z,79.76
2022-12-14T11:55:56.872Z,79.93
2022-12-14T11:58:30.044Z,79.65
2022-12-14T12:01:03.335Z,79.74
2022-12-14T12:03:37.414Z,80.01
2022-12-14T12:06:22.537Z,79.53
2022-12-14T12:12:12.605Z,79.52
2022-12-14T12:14:41.155Z,79.89
2022-12-14T12:17:20.057Z,79.92
2022-12-14T12:19:52.374Z,79.97
2022-12-14T12:22:22.076Z,80.23
2022-12-14T12:25:24.177Z,80.02
2022-12-14T12:27:55.279Z,80.04
2022-12-14T12:30:28.585Z,79.68
2022-12-14T12:33:03.905Z,80.07
2022-12-14T12:35:39.098Z,80.24
2022-12-14T12:38:13.501Z,80.58
2022-12-14T12:40:53.192Z,80.29
2022-12-14T12:43:27.072Z,80.61
2022-12-14T12:45:59.421Z,80.89
2022-12-14T12:48:33.488Z,80.73
2022-12-14T12:51:08.270Z,80.45
2022-12-14T12:53:43.881Z,80.52
2022-12-14T12:56:15.692Z,80.29
2022-12-14T12:58:52.408Z,80.58
2022-12-14T13:01:27.241Z,80.54
2022-12-14T13:03:59.357Z,80.51
2022-12-14T13:06:32.874Z,80.29
2022-12-14T13:09:07.323Z,80.59
2022-12-14T13:11:40.625Z,80.56
2022-12-14T13:14:19.196Z,80.29
2022-12-14T13:16:48.642Z,80.61
2022-12-14T13:19:49.254Z,80.49
2022-12-14T13:22:16.474Z,80.45
2022-12-14T13:24:51.800Z,80.45
2022-12-14T13:27:40.666Z,80.51
2022-12-14T13:30:31.081Z,80.86
2022-12-14T13:33:20.637Z,80.33
2022-12-14T13:36:18.357Z,80.79
2022-12-14T13:39:08.177Z,80.67
2022-12-14T13:41:43.934Z,80.26
2022-12-14T13:44:34.757Z,80.06
2022-12-14T13:47:21.779Z,79.89
2022-12-14T13:50:34.283Z,78.89
2022-12-14T13:52:47.940Z,78.28
2022-12-14T13:55:31.232Z,78.18
2022-12-14T13:58:11.030Z,77.65
2022-12-14T14:00:55.105Z,76.88
2022-12-14T14:03:46.751Z,76.17
2022-12-14T14:06:36.858Z,76.72
2022-12-14T14:09:38.701Z,77.08
2022-12-14T14:12:31.939Z,77.25
2022-12-14T14:15:17.921Z,77.45
2022-12-14T14:17:53.261Z,77.54
2022-12-14T14:20:43.031Z,78.08
2022-12-14T14:23:47.654Z,78.02
2022-12-14T14:26:27.336Z,78.48
2022-12-14T14:29:27.674Z,78.60
2022-12-14T14:32:01.146Z,78.58
2022-12-14T14:34:46.157Z,78.85
2022-12-14T14:37:31.406Z,78.94
2022-12-14T14:40:21.662Z,79.13
2022-12-14T14:43:00.368Z,79.47
2022-12-14T14:45:35.728Z,79.71
2022-12-14T14:48:11.791Z,80.02
2022-12-14T14:50:43.480Z,79.82
2022-12-14T14:53:28.959Z,80.18
2022-12-14T14:56:35.548Z,80.21
2022-12-14T14:59:43.276Z,80.43
2022-12-14T15:02:33.160Z,80.27
2022-12-14T15:05:33.365Z,80.51
2022-12-14T15:07:51.847Z,80.43
2022-12-14T15:10:29.555Z,80.67
2022-12-14T15:13:02.583Z,80.51
2022-12-14T15:15:37.205Z,80.83
2022-12-14T15:18:23.258Z,80.67
2022-12-14T15:20:57.511Z,80.68
2022-12-14T15:23:28.081Z,81.02
2022-12-14T15:25:58.965Z,80.78
2022-12-14T15:28:28.101Z,81.07
2022-12-14T15:30:58.605Z,81.02
2022-12-14T15:33:34.361Z,81.08
2022-12-14T15:36:08.214Z,81.14
2022-12-14T15:38:38.180Z,81.04
2022-12-14T15:41:13.984Z,81.05
2022-12-14T15:43:44.723Z,81.01
2022-12-14T15:46:17.348Z,81.46
2022-12-14T15:48:47.269Z,81.11
2022-12-14T15:51:19.480Z,81.43
2022-12-14T15:53:50.893Z,81.46
2022-12-14T15:56:27.786Z,81.21
2022-12-14T15:58:58.560Z,81.73
2022-12-14T16:01:31.701Z,81.66
2022-12-14T16:04:05.608Z,81.44
2022-12-14T16:06:39.274Z,81.50
2022-12-14T16:09:17.000Z,81.47
2022-12-14T16:11:49.591Z,81.48
2022-12-14T16:14:24.286Z,81.55
2022-12-14T16:16:53.157Z,81.78
2022-12-14T16:19:28.757Z,81.68
2022-12-14T16:22:12.120Z,81.66
2022-12-14T16:24:58.086Z,81.96
2022-12-14T16:27:28.802Z,81.66
2022-12-14T16:30:19.173Z,82.21
2022-12-14T16:32:50.416Z,81.82
2022-12-14T16:35:22.935Z,82.12
2022-12-14T16:37:53.808Z,82.49
2022-12-14T16:40:35.043Z,82.12
2022-12-14T16:43:05.313Z,82.06
2022-12-14T16:46:10.413Z,82.56
2022-12-14T16:48:42.113Z,82.15
2022-12-14T16:51:58.777Z,82.70
2022-12-14T16:54:30.243Z,82.46
2022-12-14T16:57:02.317Z,82.30
2022-12-14T16:59:42.924Z,82.78
2022-12-14T17:02:27.927Z,82.84
2022-12-14T17:04:58.398Z,82.35
2022-12-14T17:07:31.621Z,82.34
2022-12-14T17:10:00.319Z,82.62
2022-12-14T17:12:28.706Z,82.34
2022-12-14T17:14:59.955Z,82.60
2022-12-14T17:17:33.254Z,82.57
2022-12-14T17:20:02.677Z,82.74
2022-12-14T17:22:33.983Z,82.73
2022-12-14T17:25:02.668Z,82.52
2022-12-14T17:27:31.352Z,82.46
2022-12-14T17:30:02.231Z,82.77
2022-12-14T17:32:31.316Z,82.63
2022-12-14T17:35:00.398Z,82.96
2022-12-14T17:37:35.789Z,82.81
2022-12-14T17:40:07.799Z,82.87
2022-12-14T17:42:39.139Z,83.11
2022-12-14T17:45:18.222Z,83.31
2022-12-14T17:47:46.673Z,83.05
2022-12-14T17:50:16.196Z,82.99
2022-12-14T17:52:44.773Z,83.06
2022-12-14T17:55:19.426Z,83.10
2022-12-14T17:57:48.647Z,83.01
2022-12-14T18:00:36.032Z,83.29
2022-12-14T18:03:05.264Z,83.29
2022-12-14T18:05:34.417Z,83.26
2022-12-14T18:08:02.891Z,83.41
2022-12-14T18:10:32.823Z,83.47
2022-12-14T18:13:02.343Z,83.25
2022-12-14T18:15:32.720Z,83.37
2022-12-14T18:18:01.125Z,83.49
2022-12-14T18:20:29.565Z,83.80
2022-12-14T18:22:58.109Z,83.71
2022-12-14T18:25:31.692Z,83.82
2022-12-14T18:28:03.189Z,83.76
2022-12-14T18:30:38.847Z,83.65
2022-12-14T18:33:14.540Z,83.58
2022-12-14T18:35:43.815Z,83.68
2022-12-14T18:38:12.200Z,83.67
2022-12-14T18:40:41.900Z,83.74
2022-12-14T18:43:18.019Z,83.95
2022-12-14T18:45:46.401Z,83.96
2022-12-14T18:48:15.404Z,83.96
2022-12-14T18:50:43.941Z,84.09
2022-12-14T18:53:15.200Z,84.34
2022-12-14T18:55:44.619Z,84.17
2022-12-14T18:58:18.119Z,84.59
2022-12-14T19:00:47.350Z,84.71
2022-12-14T19:03:16.248Z,84.64
2022-12-14T19:05:45.765Z,84.69
2022-12-14T19:08:14.712Z,84.90
2022-12-14T19:10:46.080Z,84.94
2022-12-14T19:13:25.091Z,84.66
2022-12-14T19:15:54.864Z,84.63
2022-12-14T19:18:23.281Z,84.73
2022-12-14T19:20:51.633Z,84.64
2022-12-14T19:23:20.503Z,84.80
2022-12-14T19:25:49.031Z,84.71
2022-12-14T19:28:34.079Z,84.88
2022-12-14T19:31:03.191Z,84.92
2022-12-14T19:33:32.351Z,84.98
2022-12-14T19:36:01.353Z,84.97
2022-12-14T19:38:29.968Z,85.09
2022-12-14T19:41:01.239Z,84.98
2022-12-14T19:43:31.817Z,85.15
2022-12-14T19:46:00.505Z,85.13
2022-12-14T19:48:28.892Z,85.12
2022-12-14T19:50:57.277Z,84.90
2022-12-14T19:53:25.654Z,85.03
2022-12-14T19:55:54.085Z,85.11
2022-12-14T19:58:24.968Z,85.28
2022-12-14T20:00:54.863Z,84.88
2022-12-14T20:03:23.966Z,85.02
2022-12-14T20:05:54.041Z,85.01
2022-12-14T20:08:22.779Z,85.15
2022-12-14T20:10:52.723Z,85.36
2022-12-14T20:13:21.436Z,85.41
2022-12-14T20:15:50.872Z,85.26
2022-12-14T20:18:21.582Z,85.30
2022-12-14T20:20:50.576Z,85.25
2022-12-14T20:23:19.315Z,85.57
2022-12-14T20:25:47.696Z,85.41
2022-12-14T20:28:16.220Z,85.35
2022-12-14T20:30:45.545Z,85.67
2022-12-14T20:33:14.553Z,85.56
2022-12-14T20:35:44.292Z,85.58
2022-12-14T20:38:12.941Z,85.69
2022-12-14T20:40:41.298Z,85.77
2022-12-14T20:43:09.668Z,85.91
2022-12-14T20:45:39.327Z,86.02
2022-12-14T20:48:08.721Z,86.04
2022-12-14T20:50:37.851Z,86.18
2022-12-14T20:53:07.927Z,86.39
2022-12-14T20:55:36.638Z,86.22
2022-12-14T20:58:05.068Z,86.22
2022-12-14T21:00:33.452Z,86.13
2022-12-14T21:03:01.957Z,86.43
2022-12-14T21:05:30.569Z,86.50
2022-12-14T21:07:58.980Z,86.27
2022-12-14T21:10:28.818Z,86.29
2022-12-14T21:12:56.297Z,86.45
2022-12-14T21:15:24.699Z,86.58
2022-12-14T21:17:59.473Z,86.29
2022-12-14T21:20:27.862Z,86.58
2022-12-14T21:22:56.234Z,86.61
2022-12-14T21:25:24.627Z,86.72
2022-12-14T21:27:54.378Z,86.37
2022-12-14T21:30:22.742Z,86.69
2022-12-14T21:32:51.106Z,86.59
2022-12-14T21:35:19.568Z,86.68
2022-12-14T21:37:48.135Z,86.95
2022-12-14T21:40:36.588Z,86.88
2022-12-14T21:43:05.423Z,86.74
2022-12-14T21:45:34.687Z,86.67
2022-12-14T21:48:03.108Z,86.74
2022-12-14T21:50:31.464Z,86.95
2022-12-14T21:52:59.868Z,86.97
2022-12-14T21:55:28.376Z,87.09
2022-12-14T21:58:14.315Z,87.18
2022-12-14T22:00:45.168Z,86.99
2022-12-14T22:03:13.939Z,87.04
2022-12-14T22:05:42.367Z,87.29
2022-12-14T22:08:10.733Z,87.18
2022-12-14T22:10:39.181Z,87.13
2022-12-14T22:13:07.505Z,86.85
2022-12-14T22:15:36.834Z,86.97
2022-12-14T22:18:06.843Z,86.86
2022-12-14T22:20:35.747Z,87.08
2022-12-14T22:23:04.160Z,86.95
2022-12-14T22:25:32.581Z,87.30
2022-12-14T22:28:00.910Z,86.77
2022-12-14T22:30:31.914Z,87.15
2022-12-14T22:33:00.534Z,87.08
2022-12-14T22:35:30.349Z,87.13
2022-12-14T22:38:00.033Z,87.22
2022-12-14T22:40:28.404Z,87.05
2022-12-14T22:42:57.172Z,87.62
2022-12-14T22:45:26.660Z,87.33
2022-12-14T22:47:55.183Z,87.19
2022-12-14T22:50:23.550Z,87.29
2022-12-14T22:52:53.238Z,87.32
2022-12-14T22:55:22.312Z,87.45
2022-12-14T22:57:50.919Z,87.49
2022-12-14T23:00:19.255Z,87.44
2022-12-14T23:02:49.006Z,87.35
2022-12-14T23:05:18.308Z,87.40
2022-12-14T23:07:47.431Z,87.48
2022-12-14T23:10:35.012Z,87.24
2022-12-14T23:13:20.987Z,87.45
2022-12-14T23:16:06.967Z,87.50
2022-12-14T23:18:53.251Z,87.34
2022-12-14T23:21:39.774Z,87.58
2022-12-14T23:24:26.233Z,87.36
2022-12-14T23:27:13.458Z,87.16
2022-12-14T23:29:59.343Z,87.33
2022-12-14T23:32:45.309Z,87.24
2022-12-14T23:35:31.348Z,87.28
2022-12-14T23:38:22.685Z,87.20
2022-12-14T23:41:08.790Z,87.20
2022-12-14T23:43:55.798Z,87.34
2022-12-14T23:46:41.709Z,87.40
2022-12-14T23:49:27.761Z,87.42
2022-12-14T23:52:13.624Z,87.21
2022-12-14T23:54:59.783Z,87.27
2022-12-14T23:57:45.712Z,87.31
